sensor_id;sensor_type;location;lat;lon;timestamp;temperature;humidity
20141;DHT22;10231;47.702;9.826;2023-06-14T00:00:38;15.10;75.10
20141;DHT22;10231;47.702;9.826;2023-06-14T00:03:07;15.10;75.50
20141;DHT22;10231;47.702;9.826;2023-06-14T00:05:37;15.10;75.80
20141;DHT22;10231;47.702;9.826;2023-06-14T00:08:09;15.00;76.00
20141;DHT22;10231;47.702;9.826;2023-06-14T00:10:36;15.10;76.20
20141;DHT22;10231;47.702;9.826;2023-06-14T00:13:04;15.10;75.60
20141;DHT22;10231;47.702;9.826;2023-06-14T00:15:33;15.00;76.20
20141;DHT22;10231;47.702;9.826;2023-06-14T00:17:59;15.00;76.50
20141;DHT22;10231;47.702;9.826;2023-06-14T00:20:28;14.80;76.90
20141;DHT22;10231;47.702;9.826;2023-06-14T00:22:54;14.80;77.40
20141;DHT22;10231;47.702;9.826;2023-06-14T00:25:24;14.80;77.70
20141;DHT22;10231;47.702;9.826;2023-06-14T00:27:51;14.70;78.20
20141;DHT22;10231;47.702;9.826;2023-06-14T00:30:16;14.60;79.10
20141;DHT22;10231;47.702;9.826;2023-06-14T00:32:42;14.60;79.20
20141;DHT22;10231;47.702;9.826;2023-06-14T00:35:09;14.50;79.00
20141;DHT22;10231;47.702;9.826;2023-06-14T00:37:35;14.50;79.60
20141;DHT22;10231;47.702;9.826;2023-06-14T00:40:00;14.40;79.70
20141;DHT22;10231;47.702;9.826;2023-06-14T00:42:27;14.40;80.10
20141;DHT22;10231;47.702;9.826;2023-06-14T00:44:53;14.30;80.60
20141;DHT22;10231;47.702;9.826;2023-06-14T00:47:19;14.30;80.10
20141;DHT22;10231;47.702;9.826;2023-06-14T00:49:55;14.30;79.90
20141;DHT22;10231;47.702;9.826;2023-06-14T00:52:22;14.20;79.90
20141;DHT22;10231;47.702;9.826;2023-06-14T00:54:49;14.20;82.20
20141;DHT22;10231;47.702;9.826;2023-06-14T00:57:15;14.20;81.10
20141;DHT22;10231;47.702;9.826;2023-06-14T00:59:46;14.10;81.70
20141;DHT22;10231;47.702;9.826;2023-06-14T01:02:13;14.10;82.50
20141;DHT22;10231;47.702;9.826;2023-06-14T01:04:40;14.00;81.60
20141;DHT22;10231;47.702;9.826;2023-06-14T01:07:21;14.00;82.60
20141;DHT22;10231;47.702;9.826;2023-06-14T01:10:11;13.90;82.80
20141;DHT22;10231;47.702;9.826;2023-06-14T01:12:58;13.80;83.10
20141;DHT22;10231;47.702;9.826;2023-06-14T01:15:27;13.90;82.70
20141;DHT22;10231;47.702;9.826;2023-06-14T01:17:54;13.90;82.90
20141;DHT22;10231;47.702;9.826;2023-06-14T01:20:29;13.90;82.60
20141;DHT22;10231;47.702;9.826;2023-06-14T01:22:56;13.80;83.10
20141;DHT22;10231;47.702;9.826;2023-06-14T01:25:22;13.80;83.60
20141;DHT22;10231;47.702;9.826;2023-06-14T01:27:50;13.70;84.30
20141;DHT22;10231;47.702;9.826;2023-06-14T01:30:17;13.60;84.50
20141;DHT22;10231;47.702;9.826;2023-06-14T01:32:44;13.60;84.60
20141;DHT22;10231;47.702;9.826;2023-06-14T01:35:11;13.60;84.90
20141;DHT22;10231;47.702;9.826;2023-06-14T01:37:37;13.50;84.80
20141;DHT22;10231;47.702;9.826;2023-06-14T01:40:04;13.50;85.00
20141;DHT22;10231;47.702;9.826;2023-06-14T01:42:35;13.60;84.50
20141;DHT22;10231;47.702;9.826;2023-06-14T01:45:03;13.40;85.70
20141;DHT22;10231;47.702;9.826;2023-06-14T01:47:30;13.30;85.50
20141;DHT22;10231;47.702;9.826;2023-06-14T01:49:56;13.30;85.70
20141;DHT22;10231;47.702;9.826;2023-06-14T01:52:21;13.30;86.70
20141;DHT22;10231;47.702;9.826;2023-06-14T01:54:52;13.30;86.80
20141;DHT22;10231;47.702;9.826;2023-06-14T01:57:18;13.20;86.60
20141;DHT22;10231;47.702;9.826;2023-06-14T01:59:43;13.10;87.00
20141;DHT22;10231;47.702;9.826;2023-06-14T02:02:14;13.00;87.30
20141;DHT22;10231;47.702;9.826;2023-06-14T02:04:40;12.90;87.60
20141;DHT22;10231;47.702;9.826;2023-06-14T02:07:06;13.00;87.70
20141;DHT22;10231;47.702;9.826;2023-06-14T02:09:32;13.00;88.00
20141;DHT22;10231;47.702;9.826;2023-06-14T02:11:57;13.10;87.40
20141;DHT22;10231;47.702;9.826;2023-06-14T02:14:23;13.10;87.50
20141;DHT22;10231;47.702;9.826;2023-06-14T02:16:49;13.10;87.40
20141;DHT22;10231;47.702;9.826;2023-06-14T02:19:16;13.10;86.80
20141;DHT22;10231;47.702;9.826;2023-06-14T02:21:42;13.00;87.50
20141;DHT22;10231;47.702;9.826;2023-06-14T02:24:08;12.90;87.60
20141;DHT22;10231;47.702;9.826;2023-06-14T02:26:33;12.90;88.30
20141;DHT22;10231;47.702;9.826;2023-06-14T02:28:59;12.90;88.20
20141;DHT22;10231;47.702;9.826;2023-06-14T02:31:25;12.90;88.00
20141;DHT22;10231;47.702;9.826;2023-06-14T02:33:51;12.90;88.10
20141;DHT22;10231;47.702;9.826;2023-06-14T02:36:16;12.90;88.30
20141;DHT22;10231;47.702;9.826;2023-06-14T02:38:42;12.80;88.40
20141;DHT22;10231;47.702;9.826;2023-06-14T02:41:07;12.80;88.90
20141;DHT22;10231;47.702;9.826;2023-06-14T02:43:33;12.80;88.60
20141;DHT22;10231;47.702;9.826;2023-06-14T02:45:58;12.80;88.80
20141;DHT22;10231;47.702;9.826;2023-06-14T02:48:24;12.80;88.10
20141;DHT22;10231;47.702;9.826;2023-06-14T02:50:50;12.80;89.10
20141;DHT22;10231;47.702;9.826;2023-06-14T02:53:16;12.80;88.70
20141;DHT22;10231;47.702;9.826;2023-06-14T02:55:42;12.80;89.60
20141;DHT22;10231;47.702;9.826;2023-06-14T02:58:08;12.70;90.20
20141;DHT22;10231;47.702;9.826;2023-06-14T03:00:33;12.60;90.20
20141;DHT22;10231;47.702;9.826;2023-06-14T03:03:00;12.50;90.20
20141;DHT22;10231;47.702;9.826;2023-06-14T03:05:27;12.40;90.50
20141;DHT22;10231;47.702;9.826;2023-06-14T03:07:53;12.40;90.70
20141;DHT22;10231;47.702;9.826;2023-06-14T03:10:19;12.20;90.90
20141;DHT22;10231;47.702;9.826;2023-06-14T03:12:46;12.20;91.20
20141;DHT22;10231;47.702;9.826;2023-06-14T03:15:12;12.10;91.30
20141;DHT22;10231;47.702;9.826;2023-06-14T03:17:38;12.20;91.10
20141;DHT22;10231;47.702;9.826;2023-06-14T03:20:04;12.20;91.00
20141;DHT22;10231;47.702;9.826;2023-06-14T03:22:31;12.20;91.40
20141;DHT22;10231;47.702;9.826;2023-06-14T03:24:58;12.20;91.30
20141;DHT22;10231;47.702;9.826;2023-06-14T03:27:24;12.30;91.20
20141;DHT22;10231;47.702;9.826;2023-06-14T03:29:51;12.20;91.10
20141;DHT22;10231;47.702;9.826;2023-06-14T03:32:16;12.20;91.40
20141;DHT22;10231;47.702;9.826;2023-06-14T03:34:42;12.20;91.50
20141;DHT22;10231;47.702;9.826;2023-06-14T03:37:08;12.10;91.30
20141;DHT22;10231;47.702;9.826;2023-06-14T03:39:33;12.10;91.50
20141;DHT22;10231;47.702;9.826;2023-06-14T03:41:59;12.10;91.50
20141;DHT22;10231;47.702;9.826;2023-06-14T03:44:26;12.10;91.80
20141;DHT22;10231;47.702;9.826;2023-06-14T03:46:52;12.10;91.60
20141;DHT22;10231;47.702;9.826;2023-06-14T03:49:18;12.10;92.00
20141;DHT22;10231;47.702;9.826;2023-06-14T03:51:44;11.90;92.00
20141;DHT22;10231;47.702;9.826;2023-06-14T03:54:10;11.80;92.30
20141;DHT22;10231;47.702;9.826;2023-06-14T03:56:35;11.80;92.00
20141;DHT22;10231;47.702;9.826;2023-06-14T03:59:01;11.90;92.40
20141;DHT22;10231;47.702;9.826;2023-06-14T04:01:28;11.90;92.20
20141;DHT22;10231;47.702;9.826;2023-06-14T04:03:56;11.80;92.40
20141;DHT22;10231;47.702;9.826;2023-06-14T04:06:22;11.80;92.80
20141;DHT22;10231;47.702;9.826;2023-06-14T04:08:51;11.90;92.90
20141;DHT22;10231;47.702;9.826;2023-06-14T04:11:16;11.80;92.80
20141;DHT22;10231;47.702;9.826;2023-06-14T04:13:42;11.90;92.90
20141;DHT22;10231;47.702;9.826;2023-06-14T04:16:07;11.90;92.90
20141;DHT22;10231;47.702;9.826;2023-06-14T04:18:33;11.90;93.00
20141;DHT22;10231;47.702;9.826;2023-06-14T04:20:58;11.80;93.20
20141;DHT22;10231;47.702;9.826;2023-06-14T04:23:24;11.90;93.30
20141;DHT22;10231;47.702;9.826;2023-06-14T04:25:50;11.90;93.10
20141;DHT22;10231;47.702;9.826;2023-06-14T04:28:15;11.90;93.20
20141;DHT22;10231;47.702;9.826;2023-06-14T04:30:42;12.00;93.30
20141;DHT22;10231;47.702;9.826;2023-06-14T04:33:08;12.00;93.50
20141;DHT22;10231;47.702;9.826;2023-06-14T04:35:35;12.00;93.60
20141;DHT22;10231;47.702;9.826;2023-06-14T04:38:03;12.10;93.60
20141;DHT22;10231;47.702;9.826;2023-06-14T04:40:35;12.10;93.60
20141;DHT22;10231;47.702;9.826;2023-06-14T04:43:08;12.20;93.40
20141;DHT22;10231;47.702;9.826;2023-06-14T04:45:34;12.20;93.60
20141;DHT22;10231;47.702;9.826;2023-06-14T04:47:59;12.30;93.60
20141;DHT22;10231;47.702;9.826;2023-06-14T04:50:25;12.30;93.40
20141;DHT22;10231;47.702;9.826;2023-06-14T04:52:52;12.40;93.40
20141;DHT22;10231;47.702;9.826;2023-06-14T04:55:18;12.40;93.50
20141;DHT22;10231;47.702;9.826;2023-06-14T04:57:45;12.50;93.70
20141;DHT22;10231;47.702;9.826;2023-06-14T05:00:11;12.60;93.30
20141;DHT22;10231;47.702;9.826;2023-06-14T05:02:37;12.70;93.40
20141;DHT22;10231;47.702;9.826;2023-06-14T05:05:03;12.80;93.30
20141;DHT22;10231;47.702;9.826;2023-06-14T05:07:32;12.80;93.30
20141;DHT22;10231;47.702;9.826;2023-06-14T05:09:59;12.90;92.60
20141;DHT22;10231;47.702;9.826;2023-06-14T05:12:25;12.90;92.90
20141;DHT22;10231;47.702;9.826;2023-06-14T05:14:50;12.90;93.00
20141;DHT22;10231;47.702;9.826;2023-06-14T05:17:16;13.00;93.10
20141;DHT22;10231;47.702;9.826;2023-06-14T05:19:42;13.20;92.70
20141;DHT22;10231;47.702;9.826;2023-06-14T05:22:08;13.40;92.30
20141;DHT22;10231;47.702;9.826;2023-06-14T05:24:33;13.40;92.40
20141;DHT22;10231;47.702;9.826;2023-06-14T05:26:59;13.60;92.00
20141;DHT22;10231;47.702;9.826;2023-06-14T05:29:25;13.70;92.00
20141;DHT22;10231;47.702;9.826;2023-06-14T05:31:51;13.80;92.20
20141;DHT22;10231;47.702;9.826;2023-06-14T05:34:17;13.90;91.60
20141;DHT22;10231;47.702;9.826;2023-06-14T05:36:42;14.00;91.80
20141;DHT22;10231;47.702;9.826;2023-06-14T05:39:08;14.20;91.80
20141;DHT22;10231;47.702;9.826;2023-06-14T05:41:33;14.20;91.90
20141;DHT22;10231;47.702;9.826;2023-06-14T05:43:59;14.20;91.80
20141;DHT22;10231;47.702;9.826;2023-06-14T05:46:26;14.30;91.90
20141;DHT22;10231;47.702;9.826;2023-06-14T05:48:52;14.40;91.60
20141;DHT22;10231;47.702;9.826;2023-06-14T05:51:17;14.40;92.20
20141;DHT22;10231;47.702;9.826;2023-06-14T05:53:46;14.50;91.60
20141;DHT22;10231;47.702;9.826;2023-06-14T05:56:13;14.60;91.30
20141;DHT22;10231;47.702;9.826;2023-06-14T05:58:39;14.70;91.00
20141;DHT22;10231;47.702;9.826;2023-06-14T06:01:04;14.90;91.10
20141;DHT22;10231;47.702;9.826;2023-06-14T06:03:30;14.90;91.10
20141;DHT22;10231;47.702;9.826;2023-06-14T06:05:56;15.00;90.70
20141;DHT22;10231;47.702;9.826;2023-06-14T06:08:21;15.10;91.00
20141;DHT22;10231;47.702;9.826;2023-06-14T06:10:47;15.20;90.70
20141;DHT22;10231;47.702;9.826;2023-06-14T06:13:12;15.30;90.60
20141;DHT22;10231;47.702;9.826;2023-06-14T06:15:38;15.40;90.60
20141;DHT22;10231;47.702;9.826;2023-06-14T06:18:04;15.40;90.40
20141;DHT22;10231;47.702;9.826;2023-06-14T06:20:29;15.60;89.50
20141;DHT22;10231;47.702;9.826;2023-06-14T06:23:00;15.60;89.80
20141;DHT22;10231;47.702;9.826;2023-06-14T06:25:26;15.80;87.50
20141;DHT22;10231;47.702;9.826;2023-06-14T06:27:53;15.80;88.40
20141;DHT22;10231;47.702;9.826;2023-06-14T06:30:19;15.90;88.10
20141;DHT22;10231;47.702;9.826;2023-06-14T06:32:46;16.00;87.60
20141;DHT22;10231;47.702;9.826;2023-06-14T06:35:11;16.00;87.30
20141;DHT22;10231;47.702;9.826;2023-06-14T06:37:38;16.10;87.10
20141;DHT22;10231;47.702;9.826;2023-06-14T06:40:04;16.20;86.50
20141;DHT22;10231;47.702;9.826;2023-06-14T06:42:31;16.30;86.90
20141;DHT22;10231;47.702;9.826;2023-06-14T06:44:57;16.30;86.90
20141;DHT22;10231;47.702;9.826;2023-06-14T06:47:23;16.40;85.70
20141;DHT22;10231;47.702;9.826;2023-06-14T06:49:50;16.40;85.50
20141;DHT22;10231;47.702;9.826;2023-06-14T06:52:15;16.50;85.30
20141;DHT22;10231;47.702;9.826;2023-06-14T06:54:41;16.50;85.00
20141;DHT22;10231;47.702;9.826;2023-06-14T06:57:06;16.60;85.00
20141;DHT22;10231;47.702;9.826;2023-06-14T06:59:33;16.70;84.30
20141;DHT22;10231;47.702;9.826;2023-06-14T07:01:59;16.80;83.80
20141;DHT22;10231;47.702;9.826;2023-06-14T07:04:25;16.80;83.30
20141;DHT22;10231;47.702;9.826;2023-06-14T07:06:50;16.90;83.80
20141;DHT22;10231;47.702;9.826;2023-06-14T07:09:16;17.00;84.30
20141;DHT22;10231;47.702;9.826;2023-06-14T07:11:43;17.10;84.20
20141;DHT22;10231;47.702;9.826;2023-06-14T07:14:09;17.10;83.80
20141;DHT22;10231;47.702;9.826;2023-06-14T07:16:35;17.20;83.40
20141;DHT22;10231;47.702;9.826;2023-06-14T07:19:01;17.40;82.80
20141;DHT22;10231;47.702;9.826;2023-06-14T07:21:27;17.40;81.00
20141;DHT22;10231;47.702;9.826;2023-06-14T07:23:53;17.40;80.50
20141;DHT22;10231;47.702;9.826;2023-06-14T07:26:20;17.50;78.40
20141;DHT22;10231;47.702;9.826;2023-06-14T07:28:46;17.60;77.40
20141;DHT22;10231;47.702;9.826;2023-06-14T07:31:13;17.70;76.50
20141;DHT22;10231;47.702;9.826;2023-06-14T07:33:39;17.80;75.90
20141;DHT22;10231;47.702;9.826;2023-06-14T07:36:05;17.80;75.50
20141;DHT22;10231;47.702;9.826;2023-06-14T07:38:30;17.90;75.60
20141;DHT22;10231;47.702;9.826;2023-06-14T07:40:56;17.90;75.40
20141;DHT22;10231;47.702;9.826;2023-06-14T07:43:21;18.10;75.50
20141;DHT22;10231;47.702;9.826;2023-06-14T07:45:47;18.00;75.50
20141;DHT22;10231;47.702;9.826;2023-06-14T07:48:13;18.00;75.30
20141;DHT22;10231;47.702;9.826;2023-06-14T07:50:38;18.10;74.90
20141;DHT22;10231;47.702;9.826;2023-06-14T07:53:04;18.20;75.10
20141;DHT22;10231;47.702;9.826;2023-06-14T07:55:29;18.20;74.90
20141;DHT22;10231;47.702;9.826;2023-06-14T07:57:58;18.30;74.80
20141;DHT22;10231;47.702;9.826;2023-06-14T08:00:23;18.40;74.30
20141;DHT22;10231;47.702;9.826;2023-06-14T08:02:49;18.40;74.10
20141;DHT22;10231;47.702;9.826;2023-06-14T08:05:17;18.50;75.70
20141;DHT22;10231;47.702;9.826;2023-06-14T08:07:43;18.60;74.20
20141;DHT22;10231;47.702;9.826;2023-06-14T08:10:09;18.70;73.20
20141;DHT22;10231;47.702;9.826;2023-06-14T08:12:34;18.70;74.70
20141;DHT22;10231;47.702;9.826;2023-06-14T08:15:00;18.70;74.30
20141;DHT22;10231;47.702;9.826;2023-06-14T08:17:26;18.70;73.70
20141;DHT22;10231;47.702;9.826;2023-06-14T08:19:52;18.80;73.90
20141;DHT22;10231;47.702;9.826;2023-06-14T08:22:20;18.90;72.20
20141;DHT22;10231;47.702;9.826;2023-06-14T08:24:47;18.90;71.50
20141;DHT22;10231;47.702;9.826;2023-06-14T08:27:13;19.00;71.90
20141;DHT22;10231;47.702;9.826;2023-06-14T08:29:39;19.00;72.00
20141;DHT22;10231;47.702;9.826;2023-06-14T08:32:06;19.00;72.10
20141;DHT22;10231;47.702;9.826;2023-06-14T08:34:32;19.00;70.90
20141;DHT22;10231;47.702;9.826;2023-06-14T08:36:57;19.00;70.50
20141;DHT22;10231;47.702;9.826;2023-06-14T08:39:23;19.10;71.30
20141;DHT22;10231;47.702;9.826;2023-06-14T08:41:48;19.10;70.20
20141;DHT22;10231;47.702;9.826;2023-06-14T08:44:16;19.10;69.90
20141;DHT22;10231;47.702;9.826;2023-06-14T08:46:42;19.20;70.50
20141;DHT22;10231;47.702;9.826;2023-06-14T08:49:11;19.20;71.30
20141;DHT22;10231;47.702;9.826;2023-06-14T08:51:37;19.30;72.00
20141;DHT22;10231;47.702;9.826;2023-06-14T08:54:03;19.40;71.60
20141;DHT22;10231;47.702;9.826;2023-06-14T08:56:32;19.40;70.40
20141;DHT22;10231;47.702;9.826;2023-06-14T08:58:59;19.40;70.00
20141;DHT22;10231;47.702;9.826;2023-06-14T09:01:28;19.40;70.20
20141;DHT22;10231;47.702;9.826;2023-06-14T09:03:54;19.40;70.20
20141;DHT22;10231;47.702;9.826;2023-06-14T09:06:23;19.40;71.00
20141;DHT22;10231;47.702;9.826;2023-06-14T09:08:50;19.40;70.20
20141;DHT22;10231;47.702;9.826;2023-06-14T09:11:17;19.50;70.40
20141;DHT22;10231;47.702;9.826;2023-06-14T09:13:45;19.50;70.50
20141;DHT22;10231;47.702;9.826;2023-06-14T09:16:12;19.60;70.40
20141;DHT22;10231;47.702;9.826;2023-06-14T09:18:42;19.60;71.80
20141;DHT22;10231;47.702;9.826;2023-06-14T09:21:14;19.60;70.70
20141;DHT22;10231;47.702;9.826;2023-06-14T09:23:44;19.60;71.40
20141;DHT22;10231;47.702;9.826;2023-06-14T09:26:13;19.70;71.40
20141;DHT22;10231;47.702;9.826;2023-06-14T09:28:43;19.80;71.40
20141;DHT22;10231;47.702;9.826;2023-06-14T09:31:11;19.90;70.70
20141;DHT22;10231;47.702;9.826;2023-06-14T09:33:36;20.00;70.50
20141;DHT22;10231;47.702;9.826;2023-06-14T09:36:03;20.00;70.50
20141;DHT22;10231;47.702;9.826;2023-06-14T09:38:29;20.00;69.90
20141;DHT22;10231;47.702;9.826;2023-06-14T09:40:57;20.00;71.90
20141;DHT22;10231;47.702;9.826;2023-06-14T09:43:23;20.10;71.00
20141;DHT22;10231;47.702;9.826;2023-06-14T09:45:50;20.20;71.40
20141;DHT22;10231;47.702;9.826;2023-06-14T09:48:16;20.30;72.50
20141;DHT22;10231;47.702;9.826;2023-06-14T09:50:46;20.40;69.50
20141;DHT22;10231;47.702;9.826;2023-06-14T09:53:14;20.40;68.50
20141;DHT22;10231;47.702;9.826;2023-06-14T09:55:41;20.40;69.40
20141;DHT22;10231;47.702;9.826;2023-06-14T09:58:10;20.40;67.90
20141;DHT22;10231;47.702;9.826;2023-06-14T10:00:36;20.40;68.80
20141;DHT22;10231;47.702;9.826;2023-06-14T10:03:13;20.50;69.10
20141;DHT22;10231;47.702;9.826;2023-06-14T10:05:43;20.50;67.90
20141;DHT22;10231;47.702;9.826;2023-06-14T10:08:13;20.50;66.70
20141;DHT22;10231;47.702;9.826;2023-06-14T10:10:42;20.50;66.90
20141;DHT22;10231;47.702;9.826;2023-06-14T10:13:08;20.50;66.80
20141;DHT22;10231;47.702;9.826;2023-06-14T10:21:26;20.60;64.10
20141;DHT22;10231;47.702;9.826;2023-06-14T10:23:55;20.60;67.40
20141;DHT22;10231;47.702;9.826;2023-06-14T10:26:23;20.60;64.40
20141;DHT22;10231;47.702;9.826;2023-06-14T10:29:08;20.70;63.50
20141;DHT22;10231;47.702;9.826;2023-06-14T10:31:42;20.60;67.30
20141;DHT22;10231;47.702;9.826;2023-06-14T10:34:08;20.80;65.80
20141;DHT22;10231;47.702;9.826;2023-06-14T10:36:34;20.90;66.20
20141;DHT22;10231;47.702;9.826;2023-06-14T10:39:19;21.10;66.40
20141;DHT22;10231;47.702;9.826;2023-06-14T10:41:53;21.20;65.90
20141;DHT22;10231;47.702;9.826;2023-06-14T10:46:53;21.20;65.60
20141;DHT22;10231;47.702;9.826;2023-06-14T10:49:20;21.20;65.20
20141;DHT22;10231;47.702;9.826;2023-06-14T10:51:52;21.20;65.70
20141;DHT22;10231;47.702;9.826;2023-06-14T10:54:20;21.20;63.70
20141;DHT22;10231;47.702;9.826;2023-06-14T10:56:50;21.10;65.50
20141;DHT22;10231;47.702;9.826;2023-06-14T10:59:17;21.10;65.60
20141;DHT22;10231;47.702;9.826;2023-06-14T11:04:50;21.30;66.50
20141;DHT22;10231;47.702;9.826;2023-06-14T11:12:55;21.60;66.70
20141;DHT22;10231;47.702;9.826;2023-06-14T11:15:28;21.70;65.30
20141;DHT22;10231;47.702;9.826;2023-06-14T11:17:55;21.80;62.60
20141;DHT22;10231;47.702;9.826;2023-06-14T11:20:24;21.80;63.70
20141;DHT22;10231;47.702;9.826;2023-06-14T11:22:52;21.90;61.90
20141;DHT22;10231;47.702;9.826;2023-06-14T11:25:18;21.90;61.40
20141;DHT22;10231;47.702;9.826;2023-06-14T11:27:44;21.80;61.10
20141;DHT22;10231;47.702;9.826;2023-06-14T11:30:10;21.90;61.60
20141;DHT22;10231;47.702;9.826;2023-06-14T11:32:37;21.90;62.50
20141;DHT22;10231;47.702;9.826;2023-06-14T11:35:04;21.90;61.60
20141;DHT22;10231;47.702;9.826;2023-06-14T11:37:30;22.00;60.40
20141;DHT22;10231;47.702;9.826;2023-06-14T11:39:57;22.00;62.60
20141;DHT22;10231;47.702;9.826;2023-06-14T11:42:24;22.00;65.20
20141;DHT22;10231;47.702;9.826;2023-06-14T11:44:50;22.20;65.40
20141;DHT22;10231;47.702;9.826;2023-06-14T11:47:16;22.40;61.70
20141;DHT22;10231;47.702;9.826;2023-06-14T11:49:41;22.40;62.20
20141;DHT22;10231;47.702;9.826;2023-06-14T11:52:07;22.50;60.20
20141;DHT22;10231;47.702;9.826;2023-06-14T11:54:33;22.60;60.50
20141;DHT22;10231;47.702;9.826;2023-06-14T11:56:59;22.60;59.80
20141;DHT22;10231;47.702;9.826;2023-06-14T11:59:25;22.60;60.70
20141;DHT22;10231;47.702;9.826;2023-06-14T12:01:53;22.70;60.10
20141;DHT22;10231;47.702;9.826;2023-06-14T12:04:28;22.70;61.00
20141;DHT22;10231;47.702;9.826;2023-06-14T12:06:54;22.80;59.00
20141;DHT22;10231;47.702;9.826;2023-06-14T12:09:21;22.80;59.90
20141;DHT22;10231;47.702;9.826;2023-06-14T12:12:00;22.90;59.40
20141;DHT22;10231;47.702;9.826;2023-06-14T12:14:30;22.90;60.10
20141;DHT22;10231;47.702;9.826;2023-06-14T12:17:05;23.10;58.30
20141;DHT22;10231;47.702;9.826;2023-06-14T12:19:41;23.10;58.60
20141;DHT22;10231;47.702;9.826;2023-06-14T12:22:09;23.10;58.70
20141;DHT22;10231;47.702;9.826;2023-06-14T12:24:35;23.00;57.10
20141;DHT22;10231;47.702;9.826;2023-06-14T12:27:01;23.10;59.70
20141;DHT22;10231;47.702;9.826;2023-06-14T12:29:30;23.20;61.50
20141;DHT22;10231;47.702;9.826;2023-06-14T12:31:56;23.30;61.70
20141;DHT22;10231;47.702;9.826;2023-06-14T12:34:26;23.50;61.10
20141;DHT22;10231;47.702;9.826;2023-06-14T12:36:55;23.50;61.70
20141;DHT22;10231;47.702;9.826;2023-06-14T12:39:21;23.60;60.50
20141;DHT22;10231;47.702;9.826;2023-06-14T12:41:47;23.60;61.30
20141;DHT22;10231;47.702;9.826;2023-06-14T12:44:14;23.70;60.40
20141;DHT22;10231;47.702;9.826;2023-06-14T12:46:41;23.80;61.80
20141;DHT22;10231;47.702;9.826;2023-06-14T12:49:11;23.90;60.50
20141;DHT22;10231;47.702;9.826;2023-06-14T12:51:38;24.10;60.00
20141;DHT22;10231;47.702;9.826;2023-06-14T12:54:04;24.10;59.80
20141;DHT22;10231;47.702;9.826;2023-06-14T12:56:29;24.20;57.10
20141;DHT22;10231;47.702;9.826;2023-06-14T12:58:55;24.20;58.70
20141;DHT22;10231;47.702;9.826;2023-06-14T13:01:20;24.10;58.40
20141;DHT22;10231;47.702;9.826;2023-06-14T13:03:47;24.20;58.40
20141;DHT22;10231;47.702;9.826;2023-06-14T13:06:12;24.30;59.00
20141;DHT22;10231;47.702;9.826;2023-06-14T13:08:38;24.40;60.70
20141;DHT22;10231;47.702;9.826;2023-06-14T13:11:04;24.50;59.50
20141;DHT22;10231;47.702;9.826;2023-06-14T13:13:29;24.60;58.70
20141;DHT22;10231;47.702;9.826;2023-06-14T13:15:55;24.70;57.80
20141;DHT22;10231;47.702;9.826;2023-06-14T13:18:21;24.70;56.90
20141;DHT22;10231;47.702;9.826;2023-06-14T13:20:47;24.70;57.80
20141;DHT22;10231;47.702;9.826;2023-06-14T13:23:13;24.80;57.90
20141;DHT22;10231;47.702;9.826;2023-06-14T13:25:39;24.90;58.70
20141;DHT22;10231;47.702;9.826;2023-06-14T13:28:05;25.00;56.30
20141;DHT22;10231;47.702;9.826;2023-06-14T13:30:32;25.00;55.30
20141;DHT22;10231;47.702;9.826;2023-06-14T13:32:58;24.90;55.50
20141;DHT22;10231;47.702;9.826;2023-06-14T13:35:24;24.90;58.30
20141;DHT22;10231;47.702;9.826;2023-06-14T13:37:51;25.00;57.40
20141;DHT22;10231;47.702;9.826;2023-06-14T13:40:17;25.10;57.80
20141;DHT22;10231;47.702;9.826;2023-06-14T13:42:42;25.30;57.10
20141;DHT22;10231;47.702;9.826;2023-06-14T13:45:10;25.40;56.50
20141;DHT22;10231;47.702;9.826;2023-06-14T13:47:36;25.40;56.10
20141;DHT22;10231;47.702;9.826;2023-06-14T13:50:02;25.50;54.70
20141;DHT22;10231;47.702;9.826;2023-06-14T13:52:28;25.60;54.70
20141;DHT22;10231;47.702;9.826;2023-06-14T13:54:53;25.70;54.90
20141;DHT22;10231;47.702;9.826;2023-06-14T13:57:19;25.70;56.70
20141;DHT22;10231;47.702;9.826;2023-06-14T13:59:45;25.80;55.30
20141;DHT22;10231;47.702;9.826;2023-06-14T14:02:11;25.90;55.90
20141;DHT22;10231;47.702;9.826;2023-06-14T14:04:37;25.90;55.80
20141;DHT22;10231;47.702;9.826;2023-06-14T14:07:04;26.00;55.20
20141;DHT22;10231;47.702;9.826;2023-06-14T14:09:34;26.10;54.60
20141;DHT22;10231;47.702;9.826;2023-06-14T14:12:00;25.90;51.70
20141;DHT22;10231;47.702;9.826;2023-06-14T14:14:27;25.90;51.60
20141;DHT22;10231;47.702;9.826;2023-06-14T14:16:53;25.90;52.60
20141;DHT22;10231;47.702;9.826;2023-06-14T14:19:21;25.90;54.10
20141;DHT22;10231;47.702;9.826;2023-06-14T14:21:47;25.90;55.00
20141;DHT22;10231;47.702;9.826;2023-06-14T14:24:12;26.10;55.20
20141;DHT22;10231;47.702;9.826;2023-06-14T14:26:38;26.30;55.60
20141;DHT22;10231;47.702;9.826;2023-06-14T14:29:04;26.40;55.20
20141;DHT22;10231;47.702;9.826;2023-06-14T14:31:30;26.60;54.10
20141;DHT22;10231;47.702;9.826;2023-06-14T14:33:56;26.80;53.70
20141;DHT22;10231;47.702;9.826;2023-06-14T14:36:21;26.90;53.10
20141;DHT22;10231;47.702;9.826;2023-06-14T14:38:47;27.00;51.00
20141;DHT22;10231;47.702;9.826;2023-06-14T14:41:13;27.00;48.40
20141;DHT22;10231;47.702;9.826;2023-06-14T14:43:38;27.00;49.70
20141;DHT22;10231;47.702;9.826;2023-06-14T14:46:04;27.00;50.60
20141;DHT22;10231;47.702;9.826;2023-06-14T14:48:30;27.10;51.90
20141;DHT22;10231;47.702;9.826;2023-06-14T14:50:56;27.30;50.80
20141;DHT22;10231;47.702;9.826;2023-06-14T14:53:21;27.50;50.90
20141;DHT22;10231;47.702;9.826;2023-06-14T14:55:47;27.60;52.70
20141;DHT22;10231;47.702;9.826;2023-06-14T14:58:13;27.70;51.70
20141;DHT22;10231;47.702;9.826;2023-06-14T15:00:42;27.70;51.50
20141;DHT22;10231;47.702;9.826;2023-06-14T15:03:07;27.70;51.10
20141;DHT22;10231;47.702;9.826;2023-06-14T15:05:33;27.80;50.00
20141;DHT22;10231;47.702;9.826;2023-06-14T15:07:58;27.70;48.30
20141;DHT22;10231;47.702;9.826;2023-06-14T15:10:24;27.70;49.60
20141;DHT22;10231;47.702;9.826;2023-06-14T15:12:49;27.80;49.60
20141;DHT22;10231;47.702;9.826;2023-06-14T15:15:15;27.80;52.10
20141;DHT22;10231;47.702;9.826;2023-06-14T15:17:41;27.90;50.70
20141;DHT22;10231;47.702;9.826;2023-06-14T15:20:07;28.00;51.00
20141;DHT22;10231;47.702;9.826;2023-06-14T15:22:32;28.00;49.50
20141;DHT22;10231;47.702;9.826;2023-06-14T15:24:58;27.90;49.40
20141;DHT22;10231;47.702;9.826;2023-06-14T15:27:24;27.90;48.80
20141;DHT22;10231;47.702;9.826;2023-06-14T15:29:50;27.80;50.00
20141;DHT22;10231;47.702;9.826;2023-06-14T15:32:15;27.80;50.20
20141;DHT22;10231;47.702;9.826;2023-06-14T15:34:41;27.80;50.10
20141;DHT22;10231;47.702;9.826;2023-06-14T15:37:07;27.80;50.30
20141;DHT22;10231;47.702;9.826;2023-06-14T15:39:33;27.80;50.90
20141;DHT22;10231;47.702;9.826;2023-06-14T15:42:00;27.70;49.70
20141;DHT22;10231;47.702;9.826;2023-06-14T15:44:29;27.60;49.40